Time;durP1;ratioP1;P1;durP2;ratioP2;P2;SDS_P1;SDS_P2;PMS_P1;PMS_P2;Temp;Humidity;BMP_temperature;BMP_pressure;BME280_temperature;BME280_humidity;BME280_pressure;Samples;Min_cycle;Max_cycle;Signal;HPM_P1;HPM_P2
2023/06/07 00:01:14;;;;;;;;;;;22.30;52.90;;;;;;5053343;28;19932;-76
2023/06/07 00:03:41;;;;;;;;;;;22.20;52.80;;;;;;5047416;28;20007;-77
2023/06/07 00:06:09;;;;;;;;;;;22.20;52.90;;;;;;5053065;28;19929;-76
2023/06/07 00:08:37;;;;;;;;;;;22.20;53.00;;;;;;5051587;28;20428;-76
2023/06/07 00:11:03;;;;;;;;;;;22.10;53.00;;;;;;5057313;28;19928;-76
2023/06/07 00:13:30;;;;;;;;;;;22.00;53.10;;;;;;5058607;28;19948;-76
2023/06/07 00:15:57;;;;;;;;;;;22.10;53.20;;;;;;5061012;28;20023;-77
2023/06/07 00:18:24;;;;;;;;;;;22.00;53.30;;;;;;5057798;28;19936;-76
2023/06/07 00:20:52;;;;;;;;;;;21.90;53.30;;;;;;5055616;28;19928;-76
2023/06/07 00:23:20;;;;;;;;;;;21.90;53.30;;;;;;5062135;28;20475;-76
2023/06/07 00:25:48;;;;;;;;;;;21.90;53.40;;;;;;5056551;28;20028;-75
2023/06/07 00:28:15;;;;;;;;;;;21.80;53.50;;;;;;5055958;28;20629;-77
2023/06/07 00:30:41;;;;;;;;;;;21.80;53.50;;;;;;5050455;28;19932;-76
2023/06/07 00:33:08;;;;;;;;;;;21.80;53.70;;;;;;5053433;28;20029;-76
2023/06/07 00:35:34;;;;;;;;;;;21.70;53.70;;;;;;5052014;28;20319;-76
2023/06/07 00:38:01;;;;;;;;;;;21.70;53.80;;;;;;5053091;28;19929;-76
2023/06/07 00:40:28;;;;;;;;;;;21.70;53.90;;;;;;5047667;28;19940;-76
2023/06/07 00:42:55;;;;;;;;;;;21.60;53.90;;;;;;5051319;28;20279;-76
2023/06/07 00:45:22;;;;;;;;;;;21.60;53.90;;;;;;5043877;28;20406;-76
2023/06/07 00:47:49;;;;;;;;;;;21.50;54.10;;;;;;5047721;28;19929;-76
2023/06/07 00:50:16;;;;;;;;;;;21.50;54.30;;;;;;5051631;28;19936;-76
2023/06/07 00:52:42;;;;;;;;;;;21.50;54.30;;;;;;5050135;28;19929;-75
2023/06/07 00:55:09;;;;;;;;;;;21.40;54.50;;;;;;5046674;28;19936;-76
2023/06/07 00:57:36;;;;;;;;;;;21.40;54.50;;;;;;5050458;28;19929;-76
2023/06/07 01:00:06;;;;;;;;;;;21.40;54.50;;;;;;5049568;28;19975;-76
2023/06/07 01:02:34;;;;;;;;;;;21.30;54.60;;;;;;5051469;28;19939;-77
2023/06/07 01:05:02;;;;;;;;;;;21.30;54.60;;;;;;5049947;28;19967;-76
2023/06/07 01:07:29;;;;;;;;;;;21.30;54.60;;;;;;5057600;28;19983;-76
2023/06/07 01:09:56;;;;;;;;;;;21.20;54.60;;;;;;5053816;28;20029;-76
2023/06/07 01:12:23;;;;;;;;;;;21.20;54.90;;;;;;5053345;28;19928;-77
2023/06/07 01:14:50;;;;;;;;;;;21.20;54.90;;;;;;5045358;28;20398;-76
2023/06/07 01:17:24;;;;;;;;;;;21.20;55.00;;;;;;5048695;28;19937;-76
2023/06/07 01:19:53;;;;;;;;;;;21.10;54.90;;;;;;5054095;28;19928;-76
2023/06/07 01:22:20;;;;;;;;;;;21.10;55.00;;;;;;5047895;28;19929;-75
2023/06/07 01:24:48;;;;;;;;;;;21.00;54.90;;;;;;5051077;28;19944;-76
2023/06/07 01:27:15;;;;;;;;;;;21.00;55.00;;;;;;5050205;28;19939;-76
2023/06/07 01:29:42;;;;;;;;;;;21.00;55.10;;;;;;5047095;28;19932;-76
2023/06/07 01:32:11;;;;;;;;;;;20.90;55.10;;;;;;5047780;28;20363;-75
2023/06/07 01:34:39;;;;;;;;;;;20.90;55.00;;;;;;5047995;28;19939;-75
2023/06/07 01:37:06;;;;;;;;;;;20.90;55.10;;;;;;5050310;28;20003;-76
2023/06/07 01:39:32;;;;;;;;;;;20.80;55.10;;;;;;5054984;28;19929;-76
2023/06/07 01:42:01;;;;;;;;;;;20.80;55.10;;;;;;5058976;28;20709;-75
2023/06/07 01:44:27;;;;;;;;;;;20.80;55.20;;;;;;5061010;28;19936;-76
2023/06/07 01:46:54;;;;;;;;;;;20.70;55.30;;;;;;5054156;28;19978;-76
2023/06/07 01:49:20;;;;;;;;;;;20.70;55.30;;;;;;5052771;28;20499;-76
2023/06/07 01:51:47;;;;;;;;;;;20.70;55.40;;;;;;5062333;28;19935;-76
2023/06/07 01:54:15;;;;;;;;;;;20.60;55.40;;;;;;5064953;28;20350;-76
2023/06/07 01:56:48;;;;;;;;;;;20.60;55.40;;;;;;5060846;28;19936;-74
2023/06/07 01:59:20;;;;;;;;;;;20.60;55.50;;;;;;5062956;28;20001;-77
2023/06/07 02:01:50;;;;;;;;;;;20.60;55.50;;;;;;5058109;28;20398;-76
2023/06/07 02:04:19;;;;;;;;;;;20.60;55.60;;;;;;5060388;28;20019;-76
2023/06/07 02:06:46;;;;;;;;;;;20.50;55.60;;;;;;5063704;28;19985;-76
2023/06/07 02:09:14;;;;;;;;;;;20.50;55.70;;;;;;5062211;28;19935;-76
2023/06/07 02:11:41;;;;;;;;;;;20.40;55.70;;;;;;5054150;28;20394;-76
2023/06/07 02:14:09;;;;;;;;;;;20.40;55.80;;;;;;5054841;28;19928;-76
2023/06/07 02:16:37;;;;;;;;;;;20.40;55.90;;;;;;5051390;28;19928;-75
2023/06/07 02:19:06;;;;;;;;;;;20.30;55.90;;;;;;5053906;28;19933;-76
2023/06/07 02:21:33;;;;;;;;;;;20.30;56.00;;;;;;5049124;28;19935;-76
2023/06/07 02:24:00;;;;;;;;;;;20.30;56.00;;;;;;5053007;28;19978;-76
2023/06/07 02:26:27;;;;;;;;;;;20.20;56.10;;;;;;5048281;28;19973;-76
2023/06/07 02:28:53;;;;;;;;;;;20.20;56.10;;;;;;5052231;28;20163;-76
2023/06/07 02:31:20;;;;;;;;;;;20.20;56.30;;;;;;5053239;28;20428;-76
2023/06/07 02:33:48;;;;;;;;;;;20.20;56.30;;;;;;5050691;28;19966;-75
2023/06/07 02:36:15;;;;;;;;;;;20.20;56.40;;;;;;5053065;28;19928;-77
2023/06/07 02:38:42;;;;;;;;;;;20.10;56.40;;;;;;5054722;28;19929;-75
2023/06/07 02:41:08;;;;;;;;;;;20.10;56.40;;;;;;5059353;28;19928;-76
2023/06/07 02:43:36;;;;;;;;;;;20.00;56.50;;;;;;5051387;28;19929;-76
2023/06/07 02:46:02;;;;;;;;;;;20.00;56.60;;;;;;5054476;28;19940;-76
2023/06/07 02:48:29;;;;;;;;;;;20.00;56.60;;;;;;5048112;28;20496;-76
2023/06/07 02:50:57;;;;;;;;;;;19.90;56.60;;;;;;5057452;28;19935;-76
2023/06/07 02:53:24;;;;;;;;;;;19.90;56.70;;;;;;5060838;28;19932;-75
2023/06/07 02:55:50;;;;;;;;;;;19.90;56.80;;;;;;5064429;28;19928;-77
2023/06/07 02:58:17;;;;;;;;;;;19.90;56.80;;;;;;5061289;28;19933;-76
2023/06/07 03:00:49;;;;;;;;;;;19.80;56.90;;;;;;5064760;28;19936;-76
2023/06/07 03:03:16;;;;;;;;;;;19.80;57.00;;;;;;5063664;28;19928;-76
2023/06/07 03:05:45;;;;;;;;;;;19.80;57.00;;;;;;5062883;28;20009;-76
2023/06/07 03:08:13;;;;;;;;;;;19.70;57.10;;;;;;5048119;28;19929;-76
2023/06/07 03:10:40;;;;;;;;;;;19.70;57.10;;;;;;5054313;28;19928;-76
2023/06/07 03:13:06;;;;;;;;;;;19.70;57.20;;;;;;5053326;28;20598;-76
2023/06/07 03:15:33;;;;;;;;;;;19.60;57.20;;;;;;5051650;28;19982;-76
2023/06/07 03:18:00;;;;;;;;;;;19.60;57.20;;;;;;5057992;28;19939;-76
2023/06/07 03:20:28;;;;;;;;;;;19.60;57.30;;;;;;5053133;28;19929;-76
2023/06/07 03:22:55;;;;;;;;;;;19.60;57.30;;;;;;5057053;28;19932;-76
2023/06/07 03:25:23;;;;;;;;;;;19.50;57.40;;;;;;5050045;28;20019;-76
2023/06/07 03:27:49;;;;;;;;;;;19.50;57.50;;;;;;5050869;28;19935;-76
2023/06/07 03:30:16;;;;;;;;;;;19.50;57.50;;;;;;5047216;28;20531;-75
2023/06/07 03:32:43;;;;;;;;;;;19.50;57.60;;;;;;5048097;28;20272;-76
2023/06/07 03:35:09;;;;;;;;;;;19.40;57.60;;;;;;5051623;28;20645;-76
2023/06/07 03:37:36;;;;;;;;;;;19.40;57.70;;;;;;5055059;28;20222;-76
2023/06/07 03:40:03;;;;;;;;;;;19.40;57.70;;;;;;5059973;28;20472;-76
2023/06/07 03:42:31;;;;;;;;;;;19.30;57.70;;;;;;5055946;28;19928;-76
2023/06/07 03:44:57;;;;;;;;;;;19.30;57.80;;;;;;5053361;28;21066;-76
2023/06/07 03:47:24;;;;;;;;;;;19.30;57.90;;;;;;5046726;28;19962;-76
2023/06/07 03:49:50;;;;;;;;;;;19.30;57.90;;;;;;5052515;28;20455;-75
2023/06/07 03:52:17;;;;;;;;;;;19.20;57.90;;;;;;5051322;28;19986;-76
2023/06/07 03:54:43;;;;;;;;;;;19.20;57.90;;;;;;5059467;28;20398;-76
2023/06/07 03:57:10;;;;;;;;;;;19.20;58.00;;;;;;5049591;28;19994;-76
2023/06/07 03:59:38;;;;;;;;;;;19.20;58.00;;;;;;5052486;28;19966;-76
2023/06/07 04:02:05;;;;;;;;;;;19.20;58.10;;;;;;5043207;28;20609;-76
2023/06/07 04:04:32;;;;;;;;;;;19.10;58.10;;;;;;5054611;28;19929;-76
2023/06/07 04:07:00;;;;;;;;;;;19.10;58.10;;;;;;5056190;28;19935;-76
2023/06/07 04:09:27;;;;;;;;;;;19.10;58.20;;;;;;5051438;28;19928;-76
2023/06/07 04:11:53;;;;;;;;;;;19.00;58.20;;;;;;5054977;28;19935;-76
2023/06/07 04:14:20;;;;;;;;;;;19.00;58.30;;;;;;5053619;28;20637;-76
2023/06/07 04:16:48;;;;;;;;;;;19.00;58.30;;;;;;5050234;28;20846;-75
2023/06/07 04:19:15;;;;;;;;;;;19.00;58.30;;;;;;5055328;28;19939;-76
2023/06/07 04:21:41;;;;;;;;;;;19.00;58.40;;;;;;5056389;28;19982;-75
2023/06/07 04:24:08;;;;;;;;;;;18.90;58.40;;;;;;5051305;28;19928;-76
2023/06/07 04:26:35;;;;;;;;;;;18.90;58.50;;;;;;5047221;28;19928;-76
2023/06/07 04:29:01;;;;;;;;;;;18.90;58.50;;;;;;5054724;28;20409;-76
2023/06/07 04:31:32;;;;;;;;;;;18.90;58.60;;;;;;5047275;28;20402;-76
2023/06/07 04:34:01;;;;;;;;;;;18.80;58.60;;;;;;5048268;28;20010;-76
2023/06/07 04:36:28;;;;;;;;;;;18.80;58.60;;;;;;5051166;28;20310;-76
2023/06/07 04:38:55;;;;;;;;;;;18.80;58.60;;;;;;5055852;28;20417;-75
2023/06/07 04:41:30;;;;;;;;;;;18.80;59.30;;;;;;5046043;28;19928;-75
2023/06/07 04:43:56;;;;;;;;;;;18.80;58.70;;;;;;5051484;28;19932;-76
2023/06/07 04:46:24;;;;;;;;;;;18.70;58.70;;;;;;5050435;28;19932;-75
2023/06/07 04:48:51;;;;;;;;;;;18.70;58.80;;;;;;5048465;28;19932;-75
2023/06/07 04:51:20;;;;;;;;;;;18.70;58.80;;;;;;5053028;28;21270;-75
2023/06/07 04:53:47;;;;;;;;;;;18.70;58.90;;;;;;5054417;28;19929;-76
2023/06/07 04:56:13;;;;;;;;;;;18.60;58.90;;;;;;5049318;28;19929;-76
2023/06/07 04:58:40;;;;;;;;;;;18.70;59.00;;;;;;5048470;28;20410;-76
2023/06/07 05:01:09;;;;;;;;;;;18.60;59.10;;;;;;5053791;28;19963;-76
2023/06/07 05:03:36;;;;;;;;;;;18.60;59.10;;;;;;5048758;28;20413;-75
2023/06/07 05:06:04;;;;;;;;;;;18.60;59.20;;;;;;5052919;28;19928;-76
2023/06/07 05:08:31;;;;;;;;;;;18.60;59.30;;;;;;5051637;28;20385;-76
2023/06/07 05:10:58;;;;;;;;;;;18.60;59.40;;;;;;5053502;28;20422;-76
2023/06/07 05:13:25;;;;;;;;;;;18.60;59.50;;;;;;5047980;28;20018;-76
2023/06/07 05:15:52;;;;;;;;;;;18.60;59.50;;;;;;5049541;28;19974;-76
2023/06/07 05:18:19;;;;;;;;;;;18.50;59.60;;;;;;5049024;28;20019;-75
2023/06/07 05:20:46;;;;;;;;;;;18.50;59.80;;;;;;5048757;28;20603;-76
2023/06/07 05:23:16;;;;;;;;;;;18.30;66.60;;;;;;5052277;28;19928;-75
2023/06/07 05:25:45;;;;;;;;;;;18.10;66.00;;;;;;5060708;28;19939;-76
2023/06/07 05:28:11;;;;;;;;;;;18.10;66.00;;;;;;5054847;28;20286;-76
2023/06/07 05:30:38;;;;;;;;;;;18.10;66.00;;;;;;5048797;28;19928;-76
2023/06/07 05:33:05;;;;;;;;;;;18.10;65.80;;;;;;5052305;28;20047;-73
2023/06/07 05:35:32;;;;;;;;;;;18.20;65.50;;;;;;5063160;28;19928;-73
2023/06/07 05:37:58;;;;;;;;;;;18.10;65.30;;;;;;5071823;28;19929;-74
2023/06/07 05:40:25;;;;;;;;;;;18.20;65.30;;;;;;5058939;28;19932;-74
2023/06/07 05:42:56;;;;;;;;;;;18.20;65.00;;;;;;5053940;28;19928;-73
2023/06/07 05:45:22;;;;;;;;;;;18.20;64.80;;;;;;5061361;28;20020;-73
2023/06/07 05:47:49;;;;;;;;;;;18.20;64.60;;;;;;5053582;28;19933;-74
2023/06/07 05:50:16;;;;;;;;;;;18.30;64.70;;;;;;5055758;28;19933;-73
2023/06/07 05:52:42;;;;;;;;;;;18.30;64.50;;;;;;5055590;28;19928;-71
2023/06/07 05:55:10;;;;;;;;;;;18.30;64.30;;;;;;5063844;28;19979;-73
2023/06/07 05:57:37;;;;;;;;;;;18.30;64.20;;;;;;5060221;28;20322;-73
2023/06/07 06:00:09;;;;;;;;;;;18.30;64.30;;;;;;5071021;28;19935;-74
2023/06/07 06:02:37;;;;;;;;;;;18.30;64.30;;;;;;5070963;28;20406;-73
2023/06/07 06:05:04;;;;;;;;;;;18.40;64.20;;;;;;5049377;28;20399;-74
2023/06/07 06:07:31;;;;;;;;;;;18.40;64.10;;;;;;5068212;28;19928;-73
2023/06/07 06:09:57;;;;;;;;;;;18.40;64.20;;;;;;5070910;28;19927;-73
2023/06/07 06:12:24;;;;;;;;;;;18.40;64.10;;;;;;5063444;28;19982;-73
2023/06/07 06:14:50;;;;;;;;;;;18.40;64.00;;;;;;5056793;28;20469;-73
2023/06/07 06:17:18;;;;;;;;;;;18.40;64.00;;;;;;5057688;28;19929;-73
2023/06/07 06:19:45;;;;;;;;;;;18.50;64.20;;;;;;5056954;28;19978;-71
2023/06/07 06:22:11;;;;;;;;;;;18.50;64.20;;;;;;5052038;28;19925;-74
2023/06/07 06:24:38;;;;;;;;;;;18.50;64.30;;;;;;5058744;28;20799;-73
2023/06/07 06:27:06;;;;;;;;;;;18.50;64.30;;;;;;5053935;28;20059;-74
2023/06/07 06:29:32;;;;;;;;;;;18.50;64.20;;;;;;5050601;28;19935;-74
2023/06/07 06:32:00;;;;;;;;;;;18.50;64.10;;;;;;5055612;28;19985;-74
2023/06/07 06:34:28;;;;;;;;;;;18.50;64.20;;;;;;5053183;28;20389;-74
2023/06/07 06:36:55;;;;;;;;;;;18.50;64.30;;;;;;5038120;28;20013;-74
2023/06/07 06:39:23;;;;;;;;;;;18.60;64.30;;;;;;5042327;28;19928;-75
2023/06/07 06:41:49;;;;;;;;;;;18.60;64.50;;;;;;5048370;28;19928;-73
2023/06/07 06:44:16;;;;;;;;;;;18.60;64.30;;;;;;5059874;28;19986;-73
2023/06/07 06:46:43;;;;;;;;;;;18.60;64.50;;;;;;5056017;28;19936;-73
2023/06/07 06:49:10;;;;;;;;;;;18.60;64.40;;;;;;5054730;28;19940;-74
2023/06/07 06:51:38;;;;;;;;;;;18.60;64.70;;;;;;5060384;28;20009;-74
2023/06/07 06:54:04;;;;;;;;;;;18.70;64.90;;;;;;5062596;28;20493;-73
2023/06/07 06:56:31;;;;;;;;;;;18.70;64.50;;;;;;5054887;28;19936;-74
2023/06/07 06:58:57;;;;;;;;;;;18.70;64.90;;;;;;5064834;28;19928;-73
2023/06/07 07:01:24;;;;;;;;;;;18.70;65.30;;;;;;5063120;28;20456;-74
2023/06/07 07:03:50;;;;;;;;;;;18.70;65.30;;;;;;5056237;28;19928;-73
2023/06/07 07:06:18;;;;;;;;;;;18.80;65.50;;;;;;5065540;28;20026;-73
2023/06/07 07:08:46;;;;;;;;;;;18.80;65.50;;;;;;5055787;28;20040;-74
2023/06/07 07:11:13;;;;;;;;;;;18.80;65.60;;;;;;5048624;28;19928;-73
2023/06/07 07:13:39;;;;;;;;;;;18.80;65.60;;;;;;5050783;28;19982;-73
2023/06/07 07:16:06;;;;;;;;;;;18.80;65.70;;;;;;5047270;28;19928;-73
2023/06/07 07:18:32;;;;;;;;;;;18.80;65.70;;;;;;5051596;28;20025;-73
2023/06/07 07:20:59;;;;;;;;;;;18.90;65.90;;;;;;5055957;28;20684;-74
2023/06/07 07:23:25;;;;;;;;;;;18.80;65.80;;;;;;5062535;28;19939;-74
2023/06/07 07:25:53;;;;;;;;;;;18.90;66.00;;;;;;5058377;28;19928;-73
2023/06/07 07:28:20;;;;;;;;;;;18.90;66.10;;;;;;5071702;28;19928;-74
2023/06/07 07:30:46;;;;;;;;;;;18.90;66.10;;;;;;5064197;28;19936;-73
2023/06/07 07:33:13;;;;;;;;;;;19.00;66.10;;;;;;5069989;28;19933;-73
2023/06/07 07:35:39;;;;;;;;;;;19.00;66.20;;;;;;5063134;28;19932;-73
2023/06/07 07:38:06;;;;;;;;;;;19.00;66.30;;;;;;5063757;28;19935;-74
2023/06/07 07:40:33;;;;;;;;;;;19.00;66.30;;;;;;5064417;28;20882;-73
2023/06/07 07:43:00;;;;;;;;;;;19.00;66.20;;;;;;5060950;28;19929;-72
2023/06/07 07:45:27;;;;;;;;;;;19.00;66.20;;;;;;5059134;28;20320;-73
2023/06/07 07:47:53;;;;;;;;;;;19.10;66.20;;;;;;5060304;28;20061;-73
2023/06/07 07:50:20;;;;;;;;;;;19.10;66.20;;;;;;5048688;28;19928;-74
2023/06/07 07:52:47;;;;;;;;;;;19.10;66.30;;;;;;5075305;28;19928;-74
2023/06/07 07:55:13;;;;;;;;;;;19.10;66.10;;;;;;5063576;28;19982;-74
2023/06/07 07:57:40;;;;;;;;;;;19.20;66.30;;;;;;5069329;28;19932;-72
2023/06/07 08:00:10;;;;;;;;;;;19.20;66.40;;;;;;5061951;28;19934;-74
2023/06/07 08:02:37;;;;;;;;;;;19.20;66.40;;;;;;5065883;28;19928;-74
2023/06/07 08:05:05;;;;;;;;;;;19.20;66.40;;;;;;5059074;28;19929;-73
2023/06/07 08:07:32;;;;;;;;;;;19.20;66.70;;;;;;5062747;28;19928;-74
2023/06/07 08:09:58;;;;;;;;;;;19.30;66.80;;;;;;5062204;28;19924;-73
2023/06/07 08:12:25;;;;;;;;;;;19.30;66.60;;;;;;5062175;28;19974;-74
2023/06/07 08:14:51;;;;;;;;;;;19.30;67.30;;;;;;5059260;28;19925;-73
2023/06/07 08:17:20;;;;;;;;;;;19.30;66.50;;;;;;5063741;28;20595;-74
2023/06/07 08:19:46;;;;;;;;;;;19.40;66.30;;;;;;5051397;28;19963;-74
2023/06/07 08:22:13;;;;;;;;;;;19.40;66.40;;;;;;5056162;28;20410;-73
2023/06/07 08:24:39;;;;;;;;;;;19.50;66.40;;;;;;5049047;28;21209;-73
2023/06/07 08:27:07;;;;;;;;;;;19.50;66.40;;;;;;5044326;28;20025;-74
2023/06/07 08:29:33;;;;;;;;;;;19.50;66.40;;;;;;5046277;28;19940;-73
2023/06/07 08:32:00;;;;;;;;;;;19.50;66.60;;;;;;5055990;28;19928;-74
2023/06/07 08:34:28;;;;;;;;;;;19.50;66.70;;;;;;5048281;28;19939;-73
2023/06/07 08:36:55;;;;;;;;;;;19.60;66.80;;;;;;5049447;28;20048;-73
2023/06/07 08:39:22;;;;;;;;;;;19.60;66.70;;;;;;5059932;28;20418;-73
2023/06/07 08:41:49;;;;;;;;;;;19.70;66.50;;;;;;5053984;28;20013;-73
2023/06/07 08:44:16;;;;;;;;;;;19.70;66.20;;;;;;5053156;28;19929;-74
2023/06/07 08:46:43;;;;;;;;;;;19.70;66.20;;;;;;5050430;28;19940;-74
2023/06/07 08:49:11;;;;;;;;;;;19.80;66.20;;;;;;5052541;28;19929;-73
2023/06/07 08:51:42;;;;;;;;;;;19.80;66.10;;;;;;5047045;28;19936;-74
2023/06/07 08:54:09;;;;;;;;;;;19.80;66.00;;;;;;5047882;28;19935;-73
2023/06/07 08:56:38;;;;;;;;;;;19.90;66.00;;;;;;5056844;28;19929;-73
2023/06/07 08:59:05;;;;;;;;;;;19.90;66.10;;;;;;5051567;28;20137;-74
2023/06/07 09:01:34;;;;;;;;;;;19.90;65.90;;;;;;5047873;28;19993;-73
2023/06/07 09:04:01;;;;;;;;;;;20.00;65.90;;;;;;5050276;28;20023;-73
2023/06/07 09:06:27;;;;;;;;;;;20.00;65.90;;;;;;5051691;28;19932;-74
2023/06/07 09:08:56;;;;;;;;;;;20.00;65.70;;;;;;5049581;28;20561;-74
2023/06/07 09:11:23;;;;;;;;;;;20.00;65.60;;;;;;5059438;28;19933;-73
2023/06/07 09:13:49;;;;;;;;;;;20.10;65.50;;;;;;5050761;28;19932;-74
2023/06/07 09:16:16;;;;;;;;;;;20.10;65.40;;;;;;5051993;28;20815;-74
2023/06/07 09:18:43;;;;;;;;;;;20.20;65.30;;;;;;5054816;28;19932;-74
2023/06/07 09:21:20;;;;;;;;;;;20.10;65.30;;;;;;5052224;28;19974;-73
2023/06/07 09:23:47;;;;;;;;;;;20.20;65.30;;;;;;5052066;28;19929;-75
2023/06/07 09:26:15;;;;;;;;;;;20.20;65.30;;;;;;5051006;28;19928;-75
2023/06/07 09:28:42;;;;;;;;;;;20.30;65.10;;;;;;5052422;28;20018;-74
2023/06/07 09:31:09;;;;;;;;;;;20.40;64.90;;;;;;5037185;28;19939;-73
2023/06/07 09:33:35;;;;;;;;;;;20.40;64.60;;;;;;5046518;28;19924;-74
2023/06/07 09:36:03;;;;;;;;;;;20.50;64.50;;;;;;5054380;28;19932;-75
2023/06/07 09:38:29;;;;;;;;;;;20.50;64.40;;;;;;5050671;28;19929;-75
2023/06/07 09:40:56;;;;;;;;;;;20.60;64.20;;;;;;5048889;28;19958;-75
2023/06/07 09:43:25;;;;;;;;;;;20.60;63.90;;;;;;5052697;28;20428;-74
2023/06/07 09:45:53;;;;;;;;;;;20.60;63.70;;;;;;5046090;28;19955;-74
2023/06/07 09:48:20;;;;;;;;;;;20.70;63.50;;;;;;5052188;28;19974;-74
2023/06/07 09:50:56;;;;;;;;;;;20.80;63.30;;;;;;5047403;28;20417;-74
2023/06/07 09:53:23;;;;;;;;;;;20.80;63.00;;;;;;5052566;28;19928;-74
2023/06/07 09:55:49;;;;;;;;;;;20.90;63.00;;;;;;5050150;28;19990;-75
2023/06/07 09:58:19;;;;;;;;;;;21.00;63.00;;;;;;5047882;28;20140;-75
2023/06/07 10:00:47;;;;;;;;;;;21.00;62.80;;;;;;5048634;28;19994;-75
2023/06/07 10:03:15;;;;;;;;;;;21.00;62.50;;;;;;5048570;28;19936;-74
2023/06/07 10:05:42;;;;;;;;;;;21.10;61.90;;;;;;5048681;28;19963;-74
2023/06/07 10:08:09;;;;;;;;;;;21.20;61.50;;;;;;5042288;28;19933;-74
2023/06/07 10:10:36;;;;;;;;;;;21.30;61.50;;;;;;5053546;28;20762;-74
2023/06/07 10:13:04;;;;;;;;;;;21.40;61.50;;;;;;5051656;28;19928;-74
2023/06/07 10:15:31;;;;;;;;;;;21.50;61.40;;;;;;5056902;28;19928;-74
2023/06/07 10:18:01;;;;;;;;;;;21.50;61.30;;;;;;5047554;28;20353;-74
2023/06/07 10:20:30;;;;;;;;;;;21.50;60.90;;;;;;5047651;28;19928;-75
2023/06/07 10:22:59;;;;;;;;;;;21.60;60.70;;;;;;5051176;28;19935;-74
2023/06/07 10:25:27;;;;;;;;;;;21.70;60.60;;;;;;5052560;28;20473;-74
2023/06/07 10:27:59;;;;;;;;;;;21.70;60.20;;;;;;5058093;28;19951;-75
2023/06/07 10:30:27;;;;;;;;;;;21.80;60.10;;;;;;5051758;28;19932;-75
2023/06/07 10:32:54;;;;;;;;;;;21.80;60.00;;;;;;5056405;28;20813;-75
2023/06/07 10:35:22;;;;;;;;;;;21.90;59.90;;;;;;5056691;28;20535;-74
2023/06/07 10:37:50;;;;;;;;;;;21.90;59.70;;;;;;5054542;28;19932;-74
2023/06/07 10:40:17;;;;;;;;;;;22.00;59.70;;;;;;5053348;28;20260;-74
2023/06/07 10:42:44;;;;;;;;;;;22.00;59.50;;;;;;5053841;28;20653;-73
2023/06/07 10:45:15;;;;;;;;;;;22.00;59.60;;;;;;5056359;28;19933;-74
2023/06/07 10:47:41;;;;;;;;;;;22.00;59.50;;;;;;5060938;28;19935;-74
2023/06/07 10:50:08;;;;;;;;;;;22.00;59.30;;;;;;5056071;28;19932;-74
2023/06/07 10:52:54;;;;;;;;;;;22.00;59.30;;;;;;5062268;28;19932;-73
2023/06/07 10:55:25;;;;;;;;;;;22.00;59.30;;;;;;5065950;28;19956;-74
2023/06/07 10:57:52;;;;;;;;;;;22.10;59.30;;;;;;5048494;28;19954;-76
2023/06/07 11:00:28;;;;;;;;;;;22.10;59.20;;;;;;5050855;28;19932;-74
2023/06/07 11:03:16;;;;;;;;;;;22.10;59.10;;;;;;5053399;28;19929;-75
2023/06/07 11:05:57;;;;;;;;;;;22.20;59.00;;;;;;5057956;28;19929;-75
2023/06/07 11:08:26;;;;;;;;;;;22.20;58.90;;;;;;5047457;28;19940;-75
2023/06/07 11:10:58;;;;;;;;;;;22.30;58.90;;;;;;5050909;28;19932;-75
2023/06/07 11:13:25;;;;;;;;;;;22.30;58.70;;;;;;5052702;28;19928;-74
2023/06/07 11:15:51;;;;;;;;;;;22.40;58.60;;;;;;5048868;28;20006;-75
2023/06/07 11:18:18;;;;;;;;;;;22.40;58.50;;;;;;5052630;28;19932;-75
2023/06/07 11:20:51;;;;;;;;;;;22.40;58.50;;;;;;5057640;28;19946;-75
2023/06/07 11:23:18;;;;;;;;;;;22.40;58.60;;;;;;5055178;28;20052;-75
2023/06/07 11:25:46;;;;;;;;;;;22.50;58.50;;;;;;5047824;28;20418;-74
2023/06/07 11:28:13;;;;;;;;;;;22.50;58.40;;;;;;5053519;28;19935;-75
2023/06/07 11:30:42;;;;;;;;;;;22.50;58.40;;;;;;5047293;28;19990;-76
2023/06/07 11:33:08;;;;;;;;;;;22.60;58.40;;;;;;5060647;28;19934;-75
2023/06/07 11:35:35;;;;;;;;;;;22.60;58.10;;;;;;5054675;28;20583;-76
2023/06/07 11:38:03;;;;;;;;;;;22.70;57.90;;;;;;5060097;28;19957;-76
2023/06/07 11:40:29;;;;;;;;;;;22.70;57.80;;;;;;5049351;28;19987;-76
2023/06/07 11:42:57;;;;;;;;;;;22.80;57.50;;;;;;5049393;28;20006;-75
2023/06/07 11:45:24;;;;;;;;;;;22.90;57.40;;;;;;5058825;28;19940;-76
2023/06/07 11:47:51;;;;;;;;;;;22.90;57.30;;;;;;5053888;28;20018;-74
2023/06/07 11:50:17;;;;;;;;;;;23.00;57.20;;;;;;5050832;28;19954;-76
2023/06/07 11:52:47;;;;;;;;;;;23.10;57.00;;;;;;5053502;28;20532;-74
2023/06/07 11:55:16;;;;;;;;;;;23.20;56.70;;;;;;5059203;28;20505;-75
2023/06/07 11:57:47;;;;;;;;;;;23.20;56.50;;;;;;5056649;28;19939;-75
2023/06/07 12:00:18;;;;;;;;;;;23.30;56.40;;;;;;5053224;28;19932;-75
2023/06/07 12:02:45;;;;;;;;;;;23.50;56.30;;;;;;5055696;28;19929;-74
2023/06/07 12:05:12;;;;;;;;;;;23.50;56.30;;;;;;5053686;28;20444;-75
2023/06/07 12:07:40;;;;;;;;;;;23.60;56.20;;;;;;5057198;28;19928;-75
2023/06/07 12:10:07;;;;;;;;;;;23.60;55.70;;;;;;5055343;28;19928;-75
2023/06/07 12:12:34;;;;;;;;;;;23.70;55.60;;;;;;5066277;28;19935;-75
2023/06/07 12:15:01;;;;;;;;;;;23.70;55.70;;;;;;5049379;28;19998;-75
2023/06/07 12:17:34;;;;;;;;;;;23.80;55.60;;;;;;5050659;28;19935;-75
2023/06/07 12:20:08;;;;;;;;;;;23.80;55.30;;;;;;5054987;28;19986;-75
2023/06/07 12:22:35;;;;;;;;;;;23.90;55.10;;;;;;5066647;28;19934;-76
2023/06/07 12:25:09;;;;;;;;;;;24.00;55.00;;;;;;5047517;28;19940;-74
2023/06/07 12:27:36;;;;;;;;;;;24.00;55.00;;;;;;5056100;28;20441;-75
2023/06/07 12:30:04;;;;;;;;;;;24.10;55.00;;;;;;5050050;28;19928;-75
2023/06/07 12:32:32;;;;;;;;;;;24.20;54.80;;;;;;5054183;28;19975;-76
2023/06/07 12:34:59;;;;;;;;;;;24.20;54.90;;;;;;5056537;28;20051;-75
2023/06/07 12:37:26;;;;;;;;;;;24.30;54.90;;;;;;5051253;28;19973;-76
2023/06/07 12:39:52;;;;;;;;;;;24.30;54.70;;;;;;5058627;28;19929;-74
2023/06/07 12:42:19;;;;;;;;;;;24.40;54.50;;;;;;5052008;28;19932;-76
2023/06/07 12:44:47;;;;;;;;;;;24.40;54.30;;;;;;5055721;28;20696;-76
2023/06/07 12:47:13;;;;;;;;;;;24.50;53.70;;;;;;5049365;28;19928;-75
2023/06/07 12:49:42;;;;;;;;;;;24.60;53.80;;;;;;5054061;28;19929;-76
2023/06/07 12:52:09;;;;;;;;;;;24.60;53.80;;;;;;5053215;28;20260;-76
2023/06/07 12:54:35;;;;;;;;;;;24.70;53.40;;;;;;5047607;28;20553;-76
2023/06/07 12:57:02;;;;;;;;;;;24.70;53.10;;;;;;5059459;28;19998;-76
2023/06/07 12:59:28;;;;;;;;;;;24.80;53.20;;;;;;5057271;28;19937;-76
2023/06/07 13:01:55;;;;;;;;;;;24.80;53.20;;;;;;5053339;28;19936;-76
2023/06/07 13:04:21;;;;;;;;;;;24.90;52.20;;;;;;5056513;28;19944;-76
2023/06/07 13:06:50;;;;;;;;;;;24.90;52.80;;;;;;5045811;28;19928;-76
2023/06/07 13:09:16;;;;;;;;;;;24.90;52.80;;;;;;5048733;28;20009;-75
2023/06/07 13:11:43;;;;;;;;;;;25.00;52.70;;;;;;5051924;28;19936;-75
2023/06/07 13:14:10;;;;;;;;;;;25.00;52.50;;;;;;5052350;28;20461;-76
2023/06/07 13:16:37;;;;;;;;;;;25.10;52.20;;;;;;5055022;28;19928;-76
2023/06/07 13:19:04;;;;;;;;;;;25.10;51.70;;;;;;5051750;28;19928;-76
2023/06/07 13:21:31;;;;;;;;;;;25.10;52.00;;;;;;5059189;28;19933;-76
2023/06/07 13:23:59;;;;;;;;;;;25.20;52.40;;;;;;5057906;28;20308;-75
2023/06/07 13:26:25;;;;;;;;;;;25.30;52.40;;;;;;5058932;28;20512;-75
2023/06/07 13:28:52;;;;;;;;;;;25.30;52.00;;;;;;5052704;28;20010;-76
2023/06/07 13:31:18;;;;;;;;;;;25.40;51.60;;;;;;5055856;28;19929;-76
2023/06/07 13:33:45;;;;;;;;;;;25.40;51.40;;;;;;5057065;28;20364;-76
2023/06/07 13:36:12;;;;;;;;;;;25.40;51.30;;;;;;5050998;28;19928;-76
2023/06/07 13:38:38;;;;;;;;;;;25.50;51.30;;;;;;5053161;28;19940;-76
2023/06/07 13:41:06;;;;;;;;;;;25.50;50.70;;;;;;5055022;28;19928;-76
2023/06/07 13:43:33;;;;;;;;;;;25.60;51.20;;;;;;5057321;28;19939;-77
2023/06/07 13:46:00;;;;;;;;;;;25.60;50.90;;;;;;5056655;28;19935;-75
2023/06/07 13:48:29;;;;;;;;;;;25.60;51.10;;;;;;5066019;28;19928;-76
2023/06/07 13:50:56;;;;;;;;;;;25.70;51.10;;;;;;5066399;28;19928;-75
2023/06/07 13:53:23;;;;;;;;;;;25.70;51.50;;;;;;5064531;28;19955;-75
2023/06/07 13:55:50;;;;;;;;;;;25.80;51.30;;;;;;5063466;28;19929;-76
2023/06/07 13:58:17;;;;;;;;;;;25.90;51.60;;;;;;5061075;28;19938;-75
2023/06/07 14:00:44;;;;;;;;;;;25.90;51.10;;;;;;5066217;28;20033;-75
2023/06/07 14:03:11;;;;;;;;;;;25.90;51.10;;;;;;5067908;28;20475;-75
2023/06/07 14:05:37;;;;;;;;;;;26.00;51.00;;;;;;5064439;28;19932;-74
2023/06/07 14:08:04;;;;;;;;;;;26.00;51.10;;;;;;5066946;28;20060;-74
2023/06/07 14:10:31;;;;;;;;;;;26.10;50.60;;;;;;5070994;28;20434;-74
2023/06/07 14:12:57;;;;;;;;;;;26.10;50.70;;;;;;5065244;28;19935;-72
2023/06/07 14:15:26;;;;;;;;;;;26.20;51.10;;;;;;5057556;28;20390;-75
2023/06/07 14:17:53;;;;;;;;;;;26.20;50.00;;;;;;5059468;28;19935;-74